Time;durP1;ratioP1;P1;durP2;ratioP2;P2;SDS_P1;SDS_P2;PMS_P1;PMS_P2;Temp;Humidity;BMP_temperature;BMP_pressure;BME280_temperature;BME280_humidity;BME280_pressure;Samples;Min_cycle;Max_cycle;Signal;HPM_P1;HPM_P2
2021/06/28 00:00:21;;;;;;;;;11.40;9.20;;;;;;;;4964216;28;8915;-85
2021/06/28 00:02:49;;;;;;;;;9.00;9.00;;;;;;;;4963899;28;9019;-87
2021/06/28 00:05:18;;;;;;;;;10.00;10.00;;;;;;;;4965796;28;8889;-87
2021/06/28 00:07:46;;;;;;;;;10.00;10.00;;;;;;;;4965475;28;8992;-83
2021/06/28 00:10:16;;;;;;;;;10.00;10.00;;;;;;;;4964784;28;8897;-87
2021/06/28 00:12:45;;;;;;;;;11.25;10.50;;;;;;;;4967994;28;8889;-90
2021/06/28 00:15:16;;;;;;;;;8.50;8.50;;;;;;;;4966535;28;9021;-90
2021/06/28 00:17:44;;;;;;;;;14.00;11.00;;;;;;;;4964041;28;8888;-86
2021/06/28 00:20:12;;;;;;;;;16.00;9.75;;;;;;;;4973569;28;8892;-85
2021/06/28 00:22:40;;;;;;;;;12.25;11.25;;;;;;;;4966951;28;9671;-87
2021/06/28 00:25:11;;;;;;;;;12.25;12.25;;;;;;;;4966232;28;8873;-88
2021/06/28 00:27:38;;;;;;;;;10.50;10.50;;;;;;;;4965449;28;8873;-86
2021/06/28 00:30:10;;;;;;;;;10.25;8.75;;;;;;;;4964195;28;8940;-84
2021/06/28 00:32:38;;;;;;;;;13.50;10.75;;;;;;;;4967036;28;8975;-86
2021/06/28 00:35:06;;;;;;;;;10.25;10.25;;;;;;;;4966748;28;8892;-84
2021/06/28 00:37:34;;;;;;;;;15.50;14.50;;;;;;;;4966801;28;9000;-87
2021/06/28 00:40:02;;;;;;;;;14.00;14.00;;;;;;;;4968440;28;9012;-85
2021/06/28 00:42:29;;;;;;;;;15.25;15.25;;;;;;;;4964509;28;8959;-87
2021/06/28 00:44:56;;;;;;;;;11.50;11.50;;;;;;;;4965996;28;8863;-87
2021/06/28 00:47:25;;;;;;;;;15.00;13.25;;;;;;;;4964832;28;8990;-86
2021/06/28 00:49:53;;;;;;;;;17.25;15.25;;;;;;;;4967249;28;8903;-87
2021/06/28 00:52:20;;;;;;;;;15.75;14.50;;;;;;;;4964238;28;8873;-86
2021/06/28 00:54:48;;;;;;;;;13.75;13.00;;;;;;;;4966556;28;8873;-89
2021/06/28 00:57:15;;;;;;;;;14.50;13.75;;;;;;;;4964399;28;8865;-90
2021/06/28 00:59:43;;;;;;;;;16.75;14.00;;;;;;;;4964559;28;8880;-82
2021/06/28 01:02:10;;;;;;;;;13.75;13.50;;;;;;;;4963805;28;8861;-88
2021/06/28 01:04:39;;;;;;;;;14.00;14.00;;;;;;;;4964981;28;8907;-88
2021/06/28 01:07:06;;;;;;;;;17.75;16.00;;;;;;;;4966385;28;8866;-88
2021/06/28 01:09:33;;;;;;;;;17.75;16.00;;;;;;;;4965241;28;8860;-85
2021/06/28 01:12:01;;;;;;;;;14.75;13.00;;;;;;;;4965290;28;8899;-90
2021/06/28 01:14:28;;;;;;;;;15.00;14.50;;;;;;;;4964467;28;8880;-89
2021/06/28 01:16:56;;;;;;;;;15.50;13.75;;;;;;;;4965452;28;8873;-89
2021/06/28 01:19:27;;;;;;;;;15.75;14.50;;;;;;;;4965120;28;8928;-86
2021/06/28 01:21:57;;;;;;;;;18.50;16.75;;;;;;;;4965600;28;8890;-89
2021/06/28 01:24:26;;;;;;;;;14.00;11.50;;;;;;;;4965451;28;8907;-88
2021/06/28 01:26:54;;;;;;;;;18.25;14.75;;;;;;;;4962947;28;8897;-86
2021/06/28 01:29:21;;;;;;;;;14.50;14.50;;;;;;;;4963515;28;8999;-89
2021/06/28 01:31:49;;;;;;;;;15.00;15.00;;;;;;;;4963639;28;8846;-88
2021/06/28 01:34:16;;;;;;;;;12.75;12.75;;;;;;;;4970659;28;9015;-89
2021/06/28 01:36:44;;;;;;;;;11.50;9.50;;;;;;;;4964683;28;8862;-90
2021/06/28 01:39:11;;;;;;;;;14.50;14.00;;;;;;;;4964268;28;8919;-87
2021/06/28 01:41:40;;;;;;;;;14.50;14.50;;;;;;;;4965426;28;9017;-85
2021/06/28 01:44:07;;;;;;;;;10.25;10.25;;;;;;;;4964816;28;8849;-85
2021/06/28 01:46:35;;;;;;;;;14.50;13.50;;;;;;;;4965462;28;8935;-88
2021/06/28 01:49:02;;;;;;;;;12.75;12.75;;;;;;;;4963087;28;9048;-87
2021/06/28 01:51:29;;;;;;;;;9.00;9.00;;;;;;;;4963479;28;10103;-87
2021/06/28 01:53:57;;;;;;;;;12.00;11.25;;;;;;;;4963875;28;8870;-88
2021/06/28 01:56:24;;;;;;;;;12.50;12.50;;;;;;;;4965449;28;8887;-87
2021/06/28 01:58:53;;;;;;;;;11.00;11.00;;;;;;;;4958314;28;8882;-88
2021/06/28 02:01:21;;;;;;;;;14.50;11.50;;;;;;;;4962988;28;8875;-87
2021/06/28 02:03:48;;;;;;;;;11.75;11.75;;;;;;;;4964948;28;8893;-85
2021/06/28 02:06:16;;;;;;;;;15.25;15.25;;;;;;;;4964599;28;8885;-84
2021/06/28 02:08:43;;;;;;;;;13.25;13.25;;;;;;;;4960314;28;8884;-88
2021/06/28 02:11:10;;;;;;;;;14.00;13.00;;;;;;;;4965129;28;8889;-90
2021/06/28 02:13:39;;;;;;;;;11.00;11.00;;;;;;;;4964889;28;8927;-89
2021/06/28 02:16:08;;;;;;;;;13.25;13.25;;;;;;;;4962603;28;8984;-86
2021/06/28 02:18:35;;;;;;;;;11.75;11.75;;;;;;;;4963744;28;8904;-86
2021/06/28 02:21:03;;;;;;;;;10.50;10.50;;;;;;;;4962479;28;8959;-85
2021/06/28 02:23:32;;;;;;;;;10.50;10.50;;;;;;;;4965203;28;9403;-87
2021/06/28 02:26:02;;;;;;;;;10.25;9.75;;;;;;;;4964534;28;8890;-87
2021/06/28 02:28:31;;;;;;;;;12.25;12.25;;;;;;;;4963252;28;8975;-85
2021/06/28 02:31:00;;;;;;;;;10.50;10.50;;;;;;;;4962626;28;8833;-87
2021/06/28 02:33:29;;;;;;;;;10.00;10.00;;;;;;;;4966384;28;8891;-86
2021/06/28 02:35:56;;;;;;;;;12.25;12.25;;;;;;;;4961795;28;8850;-88
2021/06/28 02:38:24;;;;;;;;;8.50;8.50;;;;;;;;4966258;28;8869;-88
2021/06/28 02:40:51;;;;;;;;;9.80;9.80;;;;;;;;4962446;28;8916;-88
2021/06/28 02:43:20;;;;;;;;;11.00;11.00;;;;;;;;4960745;28;9012;-87
2021/06/28 02:45:48;;;;;;;;;9.25;9.25;;;;;;;;4963653;28;8886;-87
2021/06/28 02:48:16;;;;;;;;;13.25;11.75;;;;;;;;4965296;28;8901;-89
2021/06/28 02:50:44;;;;;;;;;9.50;8.50;;;;;;;;4964061;28;9000;-89
2021/06/28 02:53:12;;;;;;;;;7.75;7.75;;;;;;;;4963760;28;8889;-89
2021/06/28 02:55:40;;;;;;;;;11.75;10.25;;;;;;;;4964279;28;8878;-88
2021/06/28 02:58:07;;;;;;;;;8.20;8.20;;;;;;;;4963490;28;8862;-91
2021/06/28 03:00:34;;;;;;;;;13.50;12.75;;;;;;;;4963878;28;8954;-91
2021/06/28 03:03:01;;;;;;;;;9.00;9.00;;;;;;;;4963480;28;8882;-88
2021/06/28 03:05:29;;;;;;;;;9.25;9.00;;;;;;;;4966783;28;8873;-90
2021/06/28 03:07:58;;;;;;;;;10.50;9.50;;;;;;;;4963966;28;8865;-88
2021/06/28 03:10:26;;;;;;;;;11.25;10.00;;;;;;;;4959146;28;8975;-88
2021/06/28 03:12:53;;;;;;;;;8.50;8.50;;;;;;;;4961007;28;8920;-89
2021/06/28 03:15:22;;;;;;;;;7.75;7.75;;;;;;;;4962878;28;8901;-87
2021/06/28 03:17:50;;;;;;;;;8.25;7.25;;;;;;;;4967651;28;8863;-88
2021/06/28 03:20:18;;;;;;;;;6.00;6.00;;;;;;;;4961909;28;8873;-84
2021/06/28 03:22:47;;;;;;;;;7.00;7.00;;;;;;;;4962061;28;9021;-89
2021/06/28 03:25:19;;;;;;;;;7.00;7.00;;;;;;;;4963687;28;8928;-88
2021/06/28 03:27:46;;;;;;;;;7.50;7.50;;;;;;;;4960431;28;8873;-88
2021/06/28 03:30:16;;;;;;;;;11.00;9.00;;;;;;;;4961947;28;8992;-87
2021/06/28 03:32:44;;;;;;;;;6.50;6.50;;;;;;;;4961366;28;8909;-87
2021/06/28 03:35:12;;;;;;;;;10.20;9.00;;;;;;;;4965784;28;8987;-87
2021/06/28 03:37:40;;;;;;;;;8.00;8.00;;;;;;;;4965102;28;8882;-87
2021/06/28 03:40:08;;;;;;;;;9.00;9.00;;;;;;;;4965755;28;8873;-86
2021/06/28 03:42:37;;;;;;;;;7.20;6.00;;;;;;;;4963702;28;8984;-85
2021/06/28 03:45:06;;;;;;;;;8.00;8.00;;;;;;;;4963042;28;8881;-84
2021/06/28 03:47:34;;;;;;;;;8.20;8.20;;;;;;;;4964184;28;8857;-88
2021/06/28 03:50:01;;;;;;;;;7.00;7.00;;;;;;;;4964588;28;8893;-88
2021/06/28 03:52:28;;;;;;;;;7.20;7.20;;;;;;;;4967669;28;8888;-87
2021/06/28 03:54:56;;;;;;;;;6.60;6.60;;;;;;;;4965042;28;8882;-84
2021/06/28 03:57:23;;;;;;;;;6.40;6.40;;;;;;;;4968005;28;8881;-87
2021/06/28 03:59:52;;;;;;;;;10.00;8.00;;;;;;;;4966217;28;8962;-86
2021/06/28 04:02:19;;;;;;;;;8.00;8.00;;;;;;;;4966223;28;8964;-87
2021/06/28 04:04:49;;;;;;;;;8.00;7.60;;;;;;;;4968109;28;8850;-86
2021/06/28 04:07:16;;;;;;;;;6.40;6.40;;;;;;;;4967113;28;8873;-87
2021/06/28 04:09:44;;;;;;;;;7.00;7.00;;;;;;;;4968543;28;8882;-90
2021/06/28 04:12:12;;;;;;;;;7.40;7.00;;;;;;;;4967956;28;8869;-86
2021/06/28 04:14:43;;;;;;;;;9.80;8.60;;;;;;;;4966341;28;8890;-84
2021/06/28 04:17:12;;;;;;;;;7.00;7.00;;;;;;;;4968636;28;8861;-87
2021/06/28 04:19:39;;;;;;;;;8.40;8.40;;;;;;;;4963344;28;8882;-85
2021/06/28 04:22:06;;;;;;;;;11.80;10.60;;;;;;;;4964976;28;8894;-86
2021/06/28 04:24:34;;;;;;;;;10.80;9.60;;;;;;;;4966243;28;8882;-87
2021/06/28 04:27:01;;;;;;;;;11.20;8.80;;;;;;;;4967392;28;8882;-87
2021/06/28 04:29:29;;;;;;;;;10.00;10.00;;;;;;;;4966345;28;8877;-87
2021/06/28 04:31:56;;;;;;;;;8.00;8.00;;;;;;;;4965403;28;8978;-86
2021/06/28 04:34:25;;;;;;;;;9.60;9.00;;;;;;;;4967563;28;8922;-87
2021/06/28 04:36:53;;;;;;;;;9.00;9.00;;;;;;;;4966738;28;8869;-85
2021/06/28 04:39:20;;;;;;;;;10.75;10.75;;;;;;;;4966049;28;8984;-84
2021/06/28 04:41:47;;;;;;;;;12.40;12.40;;;;;;;;4967375;28;8877;-82
2021/06/28 04:44:16;;;;;;;;;9.00;9.00;;;;;;;;4963451;28;8861;-83
2021/06/28 04:46:45;;;;;;;;;10.00;8.00;;;;;;;;4964335;28;8890;-83
2021/06/28 04:49:13;;;;;;;;;10.00;8.00;;;;;;;;4966956;28;8873;-83
2021/06/28 04:51:41;;;;;;;;;13.00;11.40;;;;;;;;4963576;28;8944;-84
2021/06/28 04:54:09;;;;;;;;;10.20;10.00;;;;;;;;4965001;28;8988;-82
2021/06/28 04:56:36;;;;;;;;;13.80;13.20;;;;;;;;4966869;28;8897;-83
2021/06/28 04:59:04;;;;;;;;;14.80;14.40;;;;;;;;4967860;28;8907;-83
2021/06/28 05:01:31;;;;;;;;;13.50;13.50;;;;;;;;4960331;28;8827;-83
2021/06/28 05:03:59;;;;;;;;;14.75;14.75;;;;;;;;4962615;28;8905;-82
2021/06/28 05:06:26;;;;;;;;;17.50;15.50;;;;;;;;4964893;28;8935;-83
2021/06/28 05:08:55;;;;;;;;;18.25;16.00;;;;;;;;4962729;28;8933;-83
2021/06/28 05:11:24;;;;;;;;;17.75;17.00;;;;;;;;4968089;28;8939;-82
2021/06/28 05:13:52;;;;;;;;;20.50;19.50;;;;;;;;4958832;28;8873;-83
2021/06/28 05:16:19;;;;;;;;;17.00;17.00;;;;;;;;4959769;28;8908;-84
2021/06/28 05:18:46;;;;;;;;;16.00;15.75;;;;;;;;4961774;28;8900;-80
2021/06/28 05:21:14;;;;;;;;;17.00;17.00;;;;;;;;4963969;28;9764;-86
2021/06/28 05:23:41;;;;;;;;;14.25;12.50;;;;;;;;4965583;28;8845;-85
2021/06/28 05:26:10;;;;;;;;;11.75;11.75;;;;;;;;4960850;28;8882;-85
2021/06/28 05:28:37;;;;;;;;;15.00;15.00;;;;;;;;4962032;28;8873;-80
2021/06/28 05:31:04;;;;;;;;;11.75;11.25;;;;;;;;4959559;28;8848;-82
2021/06/28 05:33:32;;;;;;;;;14.25;14.25;;;;;;;;4964021;28;8899;-82
2021/06/28 05:35:59;;;;;;;;;15.25;15.25;;;;;;;;4963335;28;9594;-88
2021/06/28 05:38:26;;;;;;;;;12.00;12.00;;;;;;;;4965098;28;8919;-83
2021/06/28 05:40:54;;;;;;;;;15.50;15.50;;;;;;;;4965203;28;8885;-87
2021/06/28 05:43:23;;;;;;;;;17.00;14.00;;;;;;;;4966149;28;8881;-87
2021/06/28 05:45:50;;;;;;;;;15.50;15.50;;;;;;;;4965798;28;8907;-87
2021/06/28 05:48:18;;;;;;;;;15.20;15.20;;;;;;;;4963674;28;8904;-87
2021/06/28 05:50:45;;;;;;;;;14.80;14.80;;;;;;;;4964582;28;8891;-85
2021/06/28 05:53:12;;;;;;;;;18.00;16.20;;;;;;;;4965788;28;8995;-88
2021/06/28 05:55:40;;;;;;;;;17.80;15.60;;;;;;;;4964152;28;9018;-88
2021/06/28 05:58:07;;;;;;;;;15.60;15.60;;;;;;;;4964900;28;8865;-95
2021/06/28 06:00:37;;;;;;;;;15.80;14.40;;;;;;;;4968352;28;8845;-86
2021/06/28 06:03:05;;;;;;;;;16.00;14.40;;;;;;;;4950904;28;8858;-96
2021/06/28 06:05:32;;;;;;;;;18.50;16.00;;;;;;;;4965753;28;9023;-91
2021/06/28 06:08:00;;;;;;;;;16.80;15.00;;;;;;;;4963737;28;8901;-90
2021/06/28 06:10:27;;;;;;;;;16.20;16.20;;;;;;;;4964385;28;8892;-81
2021/06/28 06:12:54;;;;;;;;;17.25;16.50;;;;;;;;4964193;28;8877;-90
2021/06/28 06:15:22;;;;;;;;;15.60;15.60;;;;;;;;4965456;28;8901;-86
2021/06/28 06:17:51;;;;;;;;;17.40;17.40;;;;;;;;4963386;28;8883;-91
2021/06/28 06:20:19;;;;;;;;;14.60;14.60;;;;;;;;4963337;28;9655;-82
2021/06/28 06:22:47;;;;;;;;;15.60;15.40;;;;;;;;4962908;28;8893;-87
2021/06/28 06:25:14;;;;;;;;;14.00;14.00;;;;;;;;4964736;28;8889;-85
2021/06/28 06:27:42;;;;;;;;;15.80;15.20;;;;;;;;4961476;28;8943;-88
2021/06/28 06:30:11;;;;;;;;;18.20;18.20;;;;;;;;4963226;28;8903;-81
2021/06/28 06:32:38;;;;;;;;;14.20;12.40;;;;;;;;4962727;28;9816;-84
2021/06/28 06:35:08;;;;;;;;;10.40;10.40;;;;;;;;4962546;28;8874;-83
2021/06/28 06:37:35;;;;;;;;;11.80;10.80;;;;;;;;4961947;28;8877;-83
2021/06/28 06:40:04;;;;;;;;;9.60;9.60;;;;;;;;4962642;28;9004;-78
2021/06/28 06:42:31;;;;;;;;;10.20;10.20;;;;;;;;4963397;28;8881;-88
2021/06/28 06:44:58;;;;;;;;;9.00;9.00;;;;;;;;4961374;28;9036;-86
2021/06/28 06:47:25;;;;;;;;;13.00;10.80;;;;;;;;4964619;28;8904;-92
2021/06/28 06:49:53;;;;;;;;;14.20;11.20;;;;;;;;4963396;28;8865;-87
2021/06/28 06:52:22;;;;;;;;;11.00;9.40;;;;;;;;4963945;28;8897;-87
2021/06/28 06:54:50;;;;;;;;;14.80;14.80;;;;;;;;4959880;28;8887;-82
2021/06/28 06:57:17;;;;;;;;;15.75;13.00;;;;;;;;4959176;28;9020;-83
2021/06/28 06:59:44;;;;;;;;;16.50;15.00;;;;;;;;4964070;28;8842;-85
2021/06/28 07:02:11;;;;;;;;;13.00;13.00;;;;;;;;4959944;28;8884;-84
2021/06/28 07:04:39;;;;;;;;;12.80;12.80;;;;;;;;4964653;28;8901;-85
2021/06/28 07:07:06;;;;;;;;;13.00;11.20;;;;;;;;4964522;28;8901;-86
2021/06/28 07:09:35;;;;;;;;;13.00;11.60;;;;;;;;4964688;28;8889;-81
2021/06/28 07:12:02;;;;;;;;;10.00;10.00;;;;;;;;4964748;28;8881;-78
2021/06/28 07:14:30;;;;;;;;;11.40;8.80;;;;;;;;4963904;28;8858;-78
2021/06/28 07:16:57;;;;;;;;;10.80;9.00;;;;;;;;4964031;28;9036;-79
2021/06/28 07:19:24;;;;;;;;;8.60;8.60;;;;;;;;4962897;28;8881;-80
2021/06/28 07:21:51;;;;;;;;;7.60;7.60;;;;;;;;4963829;28;8892;-78
2021/06/28 07:24:19;;;;;;;;;5.00;5.00;;;;;;;;4965023;28;8984;-79
2021/06/28 07:26:47;;;;;;;;;5.80;5.80;;;;;;;;4968177;28;9012;-79
2021/06/28 07:29:15;;;;;;;;;8.00;5.00;;;;;;;;4967251;28;8897;-79
2021/06/28 07:31:42;;;;;;;;;8.00;8.00;;;;;;;;4949623;28;8888;-79
2021/06/28 07:34:10;;;;;;;;;7.40;6.60;;;;;;;;4965989;28;8877;-79
2021/06/28 07:36:37;;;;;;;;;10.80;9.80;;;;;;;;4965406;28;8877;-80
2021/06/28 07:39:06;;;;;;;;;9.80;8.20;;;;;;;;4967545;28;9020;-79
2021/06/28 07:41:34;;;;;;;;;7.00;7.00;;;;;;;;4966690;28;8895;-79
2021/06/28 07:44:05;;;;;;;;;7.80;7.80;;;;;;;;4967685;28;8885;-80
2021/06/28 07:46:33;;;;;;;;;5.00;5.00;;;;;;;;4966656;28;8929;-80
2021/06/28 07:49:00;;;;;;;;;6.00;6.00;;;;;;;;4966874;28;8878;-79
2021/06/28 07:51:31;;;;;;;;;6.00;6.00;;;;;;;;4967510;28;8877;-79
2021/06/28 07:53:58;;;;;;;;;40.25;29.75;;;;;;;;4966010;28;8873;-79
2021/06/28 07:56:25;;;;;;;;;9.20;9.20;;;;;;;;4969747;28;8881;-79
2021/06/28 07:58:52;;;;;;;;;25.00;21.25;;;;;;;;4965090;28;9477;-80
2021/06/28 08:01:22;;;;;;;;;16.40;9.60;;;;;;;;4966134;28;8952;-80
2021/06/28 08:03:49;;;;;;;;;116.75;100.75;;;;;;;;4965344;28;8885;-80
2021/06/28 08:06:18;;;;;;;;;5.60;5.60;;;;;;;;4965764;28;10819;-80
2021/06/28 08:08:48;;;;;;;;;36.00;30.25;;;;;;;;4966799;28;8980;-79
2021/06/28 08:11:15;;;;;;;;;47.50;39.50;;;;;;;;4966765;28;8869;-79
2021/06/28 08:13:45;;;;;;;;;6.80;6.80;;;;;;;;4967478;28;8998;-79
2021/06/28 08:16:12;;;;;;;;;6.00;6.00;;;;;;;;4965805;28;9655;-80
2021/06/28 08:18:43;;;;;;;;;8.20;8.20;;;;;;;;4966412;28;8899;-80
2021/06/28 08:21:11;;;;;;;;;8.60;7.00;;;;;;;;4966109;28;8892;-76
2021/06/28 08:23:39;;;;;;;;;7.00;7.00;;;;;;;;4966869;28;8984;-81
2021/06/28 08:26:06;;;;;;;;;56.25;46.25;;;;;;;;4966076;28;8900;-82
2021/06/28 08:28:34;;;;;;;;;12.00;12.00;;;;;;;;4966599;28;8893;-83
2021/06/28 08:31:01;;;;;;;;;39.50;32.50;;;;;;;;4966273;28;8854;-82
2021/06/28 08:33:29;;;;;;;;;6.80;6.80;;;;;;;;4966129;28;8968;-82
2021/06/28 08:35:59;;;;;;;;;10.80;10.80;;;;;;;;4966032;28;8920;-80
2021/06/28 08:38:27;;;;;;;;;12.80;10.60;;;;;;;;4961117;28;8963;-84
2021/06/28 08:40:54;;;;;;;;;28.60;20.60;;;;;;;;4967579;28;8889;-84
2021/06/28 08:43:22;;;;;;;;;10.60;8.60;;;;;;;;4966722;28;8891;-83
2021/06/28 08:45:49;;;;;;;;;5.20;5.20;;;;;;;;4964962;28;8873;-88
2021/06/28 08:48:16;;;;;;;;;6.00;6.00;;;;;;;;4968691;28;9604;-84
2021/06/28 08:50:44;;;;;;;;;6.00;6.00;;;;;;;;4964509;28;8901;-86
2021/06/28 08:53:14;;;;;;;;;5.80;5.80;;;;;;;;4966239;28;8905;-83
2021/06/28 08:55:43;;;;;;;;;6.60;6.60;;;;;;;;4961946;28;8924;-86
2021/06/28 08:58:10;;;;;;;;;4.60;4.00;;;;;;;;4967214;28;8869;-84
2021/06/28 09:00:38;;;;;;;;;7.00;7.00;;;;;;;;4965448;28;8942;-81
2021/06/28 09:03:08;;;;;;;;;8.00;8.00;;;;;;;;4966475;28;8896;-81
2021/06/28 09:05:50;;;;;;;;;5.60;5.60;;;;;;;;4967364;28;9000;-79
2021/06/28 09:08:20;;;;;;;;;5.60;5.60;;;;;;;;4966029;28;8893;-82
2021/06/28 09:10:47;;;;;;;;;8.60;8.60;;;;;;;;4962499;28;8951;-82
2021/06/28 09:13:14;;;;;;;;;23.40;22.60;;;;;;;;4964757;28;9632;-78
2021/06/28 09:15:44;;;;;;;;;7.80;7.80;;;;;;;;4964941;28;8865;-86
2021/06/28 09:18:23;;;;;;;;;9.80;9.80;;;;;;;;4965733;28;8885;-81
2021/06/28 09:20:52;;;;;;;;;10.60;10.60;;;;;;;;4964659;28;8895;-80
2021/06/28 09:23:24;;;;;;;;;8.00;8.00;;;;;;;;4965326;28;8884;-77
2021/06/28 09:25:53;;;;;;;;;10.00;10.00;;;;;;;;4964042;28;8873;-81
2021/06/28 09:28:35;;;;;;;;;9.60;9.60;;;;;;;;4962730;28;8881;-81
2021/06/28 09:31:02;;;;;;;;;7.60;7.20;;;;;;;;4961731;28;9590;-79
2021/06/28 09:33:30;;;;;;;;;7.00;7.00;;;;;;;;4965256;28;8916;-79
2021/06/28 09:35:58;;;;;;;;;6.40;6.40;;;;;;;;4965399;28;8956;-80
2021/06/28 09:38:37;;;;;;;;;6.20;6.20;;;;;;;;4963294;28;8849;-79
2021/06/28 09:41:23;;;;;;;;;8.80;8.80;;;;;;;;4963976;28;8877;-80
2021/06/28 09:43:51;;;;;;;;;4.40;4.40;;;;;;;;4961595;28;8881;-79
2021/06/28 09:46:21;;;;;;;;;5.00;5.00;;;;;;;;4964088;28;9654;-80
2021/06/28 09:48:51;;;;;;;;;5.60;4.60;;;;;;;;4964841;28;8881;-82
2021/06/28 09:51:20;;;;;;;;;4.00;4.00;;;;;;;;4964829;28;8974;-81
2021/06/28 09:53:49;;;;;;;;;6.00;5.60;;;;;;;;4965559;28;8877;-81
2021/06/28 09:56:30;;;;;;;;;3.60;3.60;;;;;;;;4964168;28;8988;-80
2021/06/28 09:58:57;;;;;;;;;5.20;4.00;;;;;;;;4955259;28;8975;-82
2021/06/28 10:01:25;;;;;;;;;3.00;3.00;;;;;;;;4964024;28;8818;-82
2021/06/28 10:03:54;;;;;;;;;4.40;4.40;;;;;;;;4964166;28;9017;-81
2021/06/28 10:06:31;;;;;;;;;3.20;3.20;;;;;;;;4964442;28;8873;-82
2021/06/28 10:09:07;;;;;;;;;3.20;3.20;;;;;;;;4960964;28;8943;-81
2021/06/28 10:11:35;;;;;;;;;3.20;3.20;;;;;;;;4964452;28;9635;-82
2021/06/28 10:14:05;;;;;;;;;3.60;3.60;;;;;;;;4962069;28;8858;-82
2021/06/28 10:16:34;;;;;;;;;2.80;2.80;;;;;;;;4963093;28;8884;-82
2021/06/28 10:19:02;;;;;;;;;3.40;3.40;;;;;;;;4965173;28;8878;-81
2021/06/28 10:21:30;;;;;;;;;3.00;3.00;;;;;;;;4968653;28;8889;-80
2021/06/28 10:23:57;;;;;;;;;2.40;2.40;;;;;;;;4968572;28;8865;-81
2021/06/28 10:26:27;;;;;;;;;3.40;3.40;;;;;;;;4959193;28;8857;-81
2021/06/28 10:28:55;;;;;;;;;3.20;3.20;;;;;;;;4963719;28;8903;-81
2021/06/28 10:31:23;;;;;;;;;2.80;2.80;;;;;;;;4962320;28;9899;-81
2021/06/28 10:33:54;;;;;;;;;2.80;2.80;;;;;;;;4965570;28;8873;-81
2021/06/28 10:36:24;;;;;;;;;3.80;3.80;;;;;;;;4963857;28;9665;-80
2021/06/28 10:38:54;;;;;;;;;2.40;2.40;;;;;;;;4963339;28;8967;-80
2021/06/28 10:41:40;;;;;;;;;2.20;2.20;;;;;;;;4966494;28;8880;-84
2021/06/28 10:44:09;;;;;;;;;3.80;3.80;;;;;;;;4966664;28;8873;-80
2021/06/28 10:46:38;;;;;;;;;5.40;5.40;;;;;;;;4965403;28;8897;-89
2021/06/28 10:49:07;;;;;;;;;3.00;3.00;;;;;;;;4957964;28;8885;-88
2021/06/28 10:51:43;;;;;;;;;2.80;2.80;;;;;;;;4966422;28;8909;-94
2021/06/28 10:54:17;;;;;;;;;1.20;1.20;;;;;;;;4962890;28;8886;-83
2021/06/28 10:56:50;;;;;;;;;2.00;2.00;;;;;;;;4961466;28;8880;-86
2021/06/28 10:59:23;;;;;;;;;1.60;1.60;;;;;;;;4966763;28;8888;-88
2021/06/28 11:02:02;;;;;;;;;1.80;1.80;;;;;;;;4967579;28;8818;-86
2021/06/28 11:04:31;;;;;;;;;1.00;1.00;;;;;;;;4968249;28;8877;-90
2021/06/28 11:07:24;;;;;;;;;2.00;2.00;;;;;;;;4963195;28;8870;-84
2021/06/28 11:09:53;;;;;;;;;3.60;2.40;;;;;;;;4969782;28;8869;-86
2021/06/28 11:12:36;;;;;;;;;1.80;1.80;;;;;;;;4971921;28;8993;-86
2021/06/28 11:15:09;;;;;;;;;1.60;1.60;;;;;;;;4970201;28;8873;-82
2021/06/28 11:17:42;;;;;;;;;1.80;1.80;;;;;;;;4972654;28;9642;-88
2021/06/28 11:20:21;;;;;;;;;1.80;1.80;;;;;;;;4972141;28;8907;-79
2021/06/28 11:22:54;;;;;;;;;1.40;1.40;;;;;;;;4971242;28;9004;-87
2021/06/28 11:25:25;;;;;;;;;2.00;2.00;;;;;;;;4966674;28;8904;-90
2021/06/28 11:28:16;;;;;;;;;2.20;2.20;;;;;;;;4966918;28;8959;-87
2021/06/28 11:30:56;;;;;;;;;4.40;3.80;;;;;;;;4968781;28;8830;-84
2021/06/28 11:33:47;;;;;;;;;1.00;1.00;;;;;;;;4970073;28;9028;-86
2021/06/28 11:36:32;;;;;;;;;4.20;2.60;;;;;;;;4966717;28;9044;-85
2021/06/28 11:39:00;;;;;;;;;3.00;3.00;;;;;;;;4972083;28;8885;-92
2021/06/28 11:41:29;;;;;;;;;1.80;1.00;;;;;;;;4966137;28;8980;-86
2021/06/28 11:44:50;;;;;;;;;1.20;0.80;;;;;;;;5122389;27;9648;-84
2021/06/28 11:47:17;;;;;;;;;3.20;1.60;;;;;;;;5103036;28;8872;-89
2021/06/28 11:49:45;;;;;;;;;12.20;7.80;;;;;;;;5102724;28;8888;-86
2021/06/28 11:52:16;;;;;;;;;2.60;2.60;;;;;;;;5102243;28;8988;-89
2021/06/28 11:54:44;;;;;;;;;1.00;1.00;;;;;;;;5100307;28;8897;-87
2021/06/28 11:57:12;;;;;;;;;2.20;2.20;;;;;;;;5106755;28;8876;-89
2021/06/28 11:59:42;;;;;;;;;1.80;1.80;;;;;;;;5107462;28;8875;-81
2021/06/28 12:02:10;;;;;;;;;2.00;2.00;;;;;;;;5076747;28;8933;-87
2021/06/28 12:04:38;;;;;;;;;2.00;2.00;;;;;;;;5076825;28;8881;-88
2021/06/28 12:07:06;;;;;;;;;4.20;3.00;;;;;;;;5072177;28;8916;-85
2021/06/28 12:09:36;;;;;;;;;3.60;3.60;;;;;;;;5075380;28;8905;-84
2021/06/28 12:12:08;;;;;;;;;1.60;1.60;;;;;;;;5065429;28;8991;-84
2021/06/28 12:14:37;;;;;;;;;2.80;2.80;;;;;;;;5074018;28;8866;-81
2021/06/28 12:17:14;;;;;;;;;2.20;2.20;;;;;;;;5062686;28;8869;-84
2021/06/28 12:19:43;;;;;;;;;2.40;1.40;;;;;;;;5066510;28;8885;-88
2021/06/28 12:22:14;;;;;;;;;3.20;1.60;;;;;;;;5071729;28;8873;-87
2021/06/28 12:24:43;;;;;;;;;0.00;0.00;;;;;;;;5071611;28;8857;-80
2021/06/28 12:27:12;;;;;;;;;2.00;2.00;;;;;;;;5088740;28;8854;-86
2021/06/28 12:29:41;;;;;;;;;4.00;4.00;;;;;;;;5067446;28;8877;-83
2021/06/28 12:32:28;;;;;;;;;3.20;3.20;;;;;;;;5069902;28;8811;-84
2021/06/28 12:34:57;;;;;;;;;2.00;2.00;;;;;;;;5070812;28;8857;-81
2021/06/28 12:37:27;;;;;;;;;0.40;0.40;;;;;;;;5067394;28;9001;-80
2021/06/28 12:39:56;;;;;;;;;2.00;2.00;;;;;;;;5080628;28;8858;-84
2021/06/28 12:42:24;;;;;;;;;1.00;1.00;;;;;;;;5073964;28;8861;-85
2021/06/28 12:44:53;;;;;;;;;0.60;0.60;;;;;;;;5071569;28;8985;-84
2021/06/28 12:47:21;;;;;;;;;1.00;1.00;;;;;;;;5070016;28;8853;-87
2021/06/28 12:49:50;;;;;;;;;0.00;0.00;;;;;;;;5082109;28;8974;-86
2021/06/28 12:52:25;;;;;;;;;0.60;0.00;;;;;;;;5079164;28;9673;-83
2021/06/28 12:55:00;;;;;;;;;0.80;0.80;;;;;;;;5062910;28;8891;-85
2021/06/28 12:57:29;;;;;;;;;1.00;1.00;;;;;;;;5059456;28;8891;-87
2021/06/28 12:59:56;;;;;;;;;1.00;1.00;;;;;;;;5056617;28;9646;-87
2021/06/28 13:02:30;;;;;;;;;0.80;0.80;;;;;;;;5059993;28;8937;-85
2021/06/28 13:05:08;;;;;;;;;1.00;1.00;;;;;;;;5067029;28;9664;-87
2021/06/28 13:07:35;;;;;;;;;1.00;1.00;;;;;;;;5056579;28;8868;-84
2021/06/28 13:10:05;;;;;;;;;0.60;0.60;;;;;;;;5055692;28;8968;-87
2021/06/28 13:12:32;;;;;;;;;2.20;1.00;;;;;;;;5053893;28;8864;-90
2021/06/28 13:15:20;;;;;;;;;0.80;0.80;;;;;;;;5059378;28;8871;-93
2021/06/28 13:17:55;;;;;;;;;0.00;0.00;;;;;;;;5059695;28;8886;-85
2021/06/28 13:20:25;;;;;;;;;0.00;0.00;;;;;;;;5055571;28;8915;-84
2021/06/28 13:22:53;;;;;;;;;0.00;0.00;;;;;;;;5064579;28;8981;-81
2021/06/28 13:25:23;;;;;;;;;1.00;1.00;;;;;;;;5054522;28;8884;-80
2021/06/28 13:27:50;;;;;;;;;0.00;0.00;;;;;;;;5058234;28;8925;-90
2021/06/28 13:30:21;;;;;;;;;1.00;1.00;;;;;;;;5060725;28;8969;-85
2021/06/28 13:32:50;;;;;;;;;0.00;0.00;;;;;;;;5063472;28;8854;-87
2021/06/28 13:35:28;;;;;;;;;0.80;0.00;;;;;;;;5073667;28;8866;-86
2021/06/28 13:38:10;;;;;;;;;0.00;0.00;;;;;;;;5065992;28;8993;-85
2021/06/28 13:40:38;;;;;;;;;0.00;0.00;;;;;;;;5065730;28;8866;-86
2021/06/28 13:43:05;;;;;;;;;0.00;0.00;;;;;;;;5066219;28;8884;-82
2021/06/28 13:45:40;;;;;;;;;0.00;0.00;;;;;;;;5055689;28;8877;-83
2021/06/28 13:48:08;;;;;;;;;0.00;0.00;;;;;;;;5064825;28;8977;-84
2021/06/28 13:50:40;;;;;;;;;0.00;0.00;;;;;;;;5065796;28;8890;-83
2021/06/28 13:53:10;;;;;;;;;0.00;0.00;;;;;;;;5057992;28;8869;-80
2021/06/28 13:55:39;;;;;;;;;0.40;0.00;;;;;;;;5073992;28;8951;-81
2021/06/28 13:58:07;;;;;;;;;0.00;0.00;;;;;;;;5060545;28;8851;-84
2021/06/28 14:00:40;;;;;;;;;0.00;0.00;;;;;;;;5057483;28;8844;-85
2021/06/28 14:03:08;;;;;;;;;0.00;0.00;;;;;;;;5058736;28;8918;-86
2021/06/28 14:05:37;;;;;;;;;0.60;0.00;;;;;;;;5064188;28;8913;-83
2021/06/28 14:08:06;;;;;;;;;0.00;0.00;;;;;;;;5065339;28;8989;-83
2021/06/28 14:10:33;;;;;;;;;0.00;0.00;;;;;;;;5065154;28;8973;-83
2021/06/28 14:13:02;;;;;;;;;0.00;0.00;;;;;;;;5064657;28;8874;-84
2021/06/28 14:15:29;;;;;;;;;0.00;0.00;;;;;;;;5060359;28;8880;-86
2021/06/28 14:17:56;;;;;;;;;0.00;0.00;;;;;;;;5068191;28;8860;-85
2021/06/28 14:20:25;;;;;;;;;0.00;0.00;;;;;;;;5066284;28;9013;-85
2021/06/28 14:22:55;;;;;;;;;0.00;0.00;;;;;;;;5063061;28;8955;-81
2021/06/28 14:25:24;;;;;;;;;0.00;0.00;;;;;;;;5053892;28;9640;-79
2021/06/28 14:27:52;;;;;;;;;0.00;0.00;;;;;;;;5058768;28;8836;-87
2021/06/28 14:30:22;;;;;;;;;0.00;0.00;;;;;;;;5064472;28;8958;-86
2021/06/28 14:32:50;;;;;;;;;0.00;0.00;;;;;;;;5065741;28;8835;-86
2021/06/28 14:35:18;;;;;;;;;0.00;0.00;;;;;;;;5063753;28;8862;-84
2021/06/28 14:37:45;;;;;;;;;0.00;0.00;;;;;;;;5065743;28;8993;-87
2021/06/28 14:40:15;;;;;;;;;0.00;0.00;;;;;;;;5061430;28;9006;-83
2021/06/28 14:42:43;;;;;;;;;0.00;0.00;;;;;;;;5065192;28;8891;-82
2021/06/28 14:45:13;;;;;;;;;0.00;0.00;;;;;;;;5056666;28;8879;-82
2021/06/28 14:47:41;;;;;;;;;0.00;0.00;;;;;;;;5058097;28;8858;-94
2021/06/28 14:50:09;;;;;;;;;0.00;0.00;;;;;;;;5065643;28;8893;-87
2021/06/28 14:52:37;;;;;;;;;0.00;0.00;;;;;;;;5062373;28;8890;-96
2021/06/28 14:55:05;;;;;;;;;0.00;0.00;;;;;;;;5068753;28;8895;-88
2021/06/28 14:57:34;;;;;;;;;0.00;0.00;;;;;;;;5068174;28;8909;-92